Time;durP1;ratioP1;P1;durP2;ratioP2;P2;SDS_P1;SDS_P2;PMS_P1;PMS_P2;Temp;Humidity;BMP_temperature;BMP_pressure;BME280_temperature;BME280_humidity;BME280_pressure;Samples;Min_cycle;Max_cycle;Signal;HPM_P1;HPM_P2
2022/01/12 00:01:29;;;;;;;60.77;23.60;;;-3.50;99.90;;;;;;10464594;28;20144;-89
2022/01/12 00:06:29;;;;;;;83.70;30.37;;;-3.50;99.90;;;;;;10478849;28;20024;-89
2022/01/12 00:11:30;;;;;;;79.40;28.80;;;-3.50;99.90;;;;;;10465954;28;20040;-88
2022/01/12 00:16:31;;;;;;;83.17;29.17;;;-3.40;99.90;;;;;;10457657;28;20021;-88
2022/01/12 00:21:33;;;;;;;89.07;30.23;;;-3.40;99.90;;;;;;10490168;28;20052;-88
2022/01/12 00:37:02;;;;;;;82.40;29.87;;;-3.40;99.90;;;;;;10497173;28;20039;-90
2022/01/12 00:42:02;;;;;;;69.60;26.63;;;-3.40;99.90;;;;;;10477580;28;20132;-89
2022/01/12 00:47:03;;;;;;;69.63;27.53;;;-3.30;99.90;;;;;;10479126;28;20103;-89
2022/01/12 00:52:04;;;;;;;82.70;29.57;;;-3.30;99.90;;;;;;10490334;28;20037;-89
2022/01/12 00:57:05;;;;;;;61.57;23.33;;;-3.20;99.90;;;;;;10451962;28;20464;-90
2022/01/12 01:02:06;;;;;;;60.47;22.87;;;-3.30;99.90;;;;;;10453867;28;20060;-89
2022/01/12 01:07:06;;;;;;;39.50;15.13;;;-3.20;99.90;;;;;;10486728;28;20036;-90
2022/01/12 01:12:08;;;;;;;41.13;15.13;;;-3.40;99.90;;;;;;10450003;28;20060;-89
2022/01/12 01:27:47;;;;;;;49.27;17.57;;;-3.50;99.90;;;;;;10451829;28;20048;-89
2022/01/12 01:32:49;;;;;;;45.60;18.17;;;-3.60;99.90;;;;;;10473343;28;20028;-91
2022/01/12 01:37:49;;;;;;;45.73;17.53;;;-3.70;99.90;;;;;;10476894;28;20032;-88
2022/01/12 01:53:23;;;;;;;43.90;17.33;;;-3.80;99.90;;;;;;10493028;28;20047;-89
2022/01/12 01:58:23;;;;;;;49.60;19.50;;;-4.00;99.90;;;;;;10462479;28;20032;-89
2022/01/12 02:03:28;;;;;;;39.47;17.47;;;-3.90;99.90;;;;;;10461332;28;20044;-88
2022/01/12 02:08:30;;;;;;;49.75;17.85;;;-4.00;99.90;;;;;;10470545;28;20070;-88
2022/01/12 02:13:32;;;;;;;60.03;22.73;;;-3.90;99.90;;;;;;10515440;28;20057;-90
2022/01/12 02:18:42;;;;;;;52.83;21.40;;;-3.80;99.90;;;;;;10479656;28;20032;-88
2022/01/12 02:39:56;;;;;;;44.77;16.77;;;-3.80;99.90;;;;;;10505823;28;20411;-90
2022/01/12 02:55:35;;;;;;;51.93;20.43;;;-3.80;99.90;;;;;;10507345;28;20040;-88
2022/01/12 03:01:02;;;;;;;42.67;17.47;;;-3.90;99.90;;;;;;10480526;28;20476;-89
2022/01/12 03:06:03;;;;;;;49.30;18.77;;;-3.80;99.90;;;;;;10481064;28;21232;-90
2022/01/12 03:11:06;;;;;;;42.47;15.77;;;-3.80;99.90;;;;;;10477109;28;20025;-90
2022/01/12 03:16:18;;;;;;;41.70;15.73;;;-3.70;99.90;;;;;;10489874;28;20089;-90
2022/01/12 03:21:23;;;;;;;39.60;15.57;;;-3.70;99.90;;;;;;10488343;28;20110;-88
2022/01/12 03:26:27;;;;;;;40.87;16.60;;;-3.70;99.90;;;;;;10469742;28;20044;-89
2022/01/12 03:31:32;;;;;;;42.60;16.30;;;-3.70;99.90;;;;;;10458637;28;20092;-89
2022/01/12 03:41:43;;;;;;;40.63;16.20;;;-3.70;99.90;;;;;;10503343;28;20080;-88
2022/01/12 03:46:48;;;;;;;47.90;17.10;;;-3.80;99.90;;;;;;10484620;28;20028;-91
2022/01/12 03:51:50;;;;;;;43.40;17.10;;;-3.80;99.90;;;;;;10482339;28;20029;-86
2022/01/12 03:56:50;;;;;;;41.73;16.57;;;-3.80;99.90;;;;;;10519703;28;20294;-88
2022/01/12 04:01:51;;;;;;;37.33;15.97;;;-3.60;99.90;;;;;;10496247;28;20048;-91
2022/01/12 04:12:12;;;;;;;44.43;17.07;;;-3.70;99.90;;;;;;10496668;28;20036;-87
2022/01/12 04:17:12;;;;;;;46.60;18.97;;;-3.70;99.90;;;;;;10491841;28;20613;-86
2022/01/12 04:27:32;;;;;;;73.13;29.87;;;-3.70;99.90;;;;;;10462354;28;20045;-86
2022/01/12 04:32:56;;;;;;;119.87;40.50;;;-3.60;99.90;;;;;;10478934;28;20111;-91
2022/01/12 04:37:57;;;;;;;110.03;36.23;;;-3.60;99.90;;;;;;10480194;28;20043;-90
2022/01/12 04:42:58;;;;;;;171.37;56.03;;;-3.60;99.90;;;;;;10510582;28;20507;-87
2022/01/12 04:48:07;;;;;;;121.70;38.37;;;-3.60;99.90;;;;;;10511229;28;20090;-88
2022/01/12 04:53:09;;;;;;;42.03;17.57;;;-3.50;99.90;;;;;;10503746;28;20037;-84
2022/01/12 04:58:10;;;;;;;149.83;49.77;;;-3.50;99.90;;;;;;10476634;28;20071;-88
2022/01/12 05:13:34;;;;;;;112.13;42.57;;;-3.50;99.90;;;;;;10489404;28;20044;-88
2022/01/12 05:18:35;;;;;;;61.07;23.80;;;-3.50;99.90;;;;;;10474071;28;20572;-87
2022/01/12 05:23:37;;;;;;;93.80;32.43;;;-3.50;99.90;;;;;;10459869;28;20036;-86
2022/01/12 05:28:38;;;;;;;78.27;27.30;;;-3.40;99.90;;;;;;10482583;28;20036;-86
2022/01/12 05:33:45;;;;;;;234.57;66.60;;;-3.40;99.90;;;;;;10457024;28;20024;-88
2022/01/12 05:38:47;;;;;;;293.70;82.67;;;-3.40;99.90;;;;;;10441096;28;20033;-89
2022/01/12 05:43:48;;;;;;;200.23;56.80;;;-3.40;99.90;;;;;;10450604;28;20677;-86
2022/01/12 05:54:08;;;;;;;125.27;38.23;;;-3.30;99.90;;;;;;10446905;28;20700;-86
2022/01/12 05:59:09;;;;;;;228.00;64.57;;;-3.30;99.90;;;;;;10446878;28;20053;-86
2022/01/12 06:04:09;;;;;;;145.97;39.57;;;-3.30;99.90;;;;;;10449327;28;20041;-87
2022/01/12 06:09:10;;;;;;;144.63;45.47;;;-3.40;99.90;;;;;;10450903;28;20439;-86
2022/01/12 06:14:12;;;;;;;126.50;38.50;;;-3.40;99.90;;;;;;10447930;28;20025;-86
2022/01/12 06:19:15;;;;;;;108.73;33.27;;;-3.30;99.90;;;;;;10431678;28;20025;-86
2022/01/12 06:24:16;;;;;;;103.33;35.53;;;-3.30;99.90;;;;;;10449537;28;20052;-90
2022/01/12 06:34:20;;;;;;;94.23;31.97;;;-3.30;99.90;;;;;;10457890;28;20032;-86
2022/01/12 06:39:23;;;;;;;123.57;39.13;;;-3.40;99.90;;;;;;10458027;28;20388;-86
2022/01/12 06:44:25;;;;;;;83.20;28.67;;;-3.40;99.90;;;;;;10458019;28;20044;-87
2022/01/12 06:49:26;;;;;;;45.17;19.67;;;-3.40;99.90;;;;;;10468660;28;20029;-87
2022/01/12 06:54:27;;;;;;;52.03;22.33;;;-3.30;99.90;;;;;;10496985;28;20472;-86
2022/01/12 06:59:27;;;;;;;66.90;24.70;;;-3.30;99.90;;;;;;10480109;28;20114;-87
2022/01/12 07:04:28;;;;;;;67.77;24.47;;;-3.30;99.90;;;;;;10458142;28;20041;-87
2022/01/12 07:09:29;;;;;;;64.13;22.90;;;-3.20;99.90;;;;;;10489281;28;20441;-86
2022/01/12 07:14:29;;;;;;;55.53;22.80;;;-3.20;99.90;;;;;;10456022;28;20396;-89
2022/01/12 07:19:30;;;;;;;59.23;24.67;;;-3.20;99.90;;;;;;10454719;28;20083;-86
2022/01/12 07:24:31;;;;;;;64.93;24.70;;;-3.10;99.90;;;;;;10437283;28;20120;-87
2022/01/12 07:29:31;;;;;;;58.13;23.23;;;-3.00;99.90;;;;;;10455804;28;20021;-89
2022/01/12 07:34:32;;;;;;;73.57;36.23;;;-2.90;99.90;;;;;;10462061;28;20044;-88
2022/01/12 07:39:33;;;;;;;104.80;46.53;;;-2.90;99.90;;;;;;10454033;28;20025;-86
2022/01/12 07:44:33;;;;;;;71.83;30.43;;;-2.80;99.90;;;;;;10454925;28;20040;-86
2022/01/12 07:49:34;;;;;;;78.97;32.63;;;-2.80;99.90;;;;;;10454766;28;20096;-88
2022/01/12 07:54:35;;;;;;;70.07;26.67;;;-2.70;99.90;;;;;;10437994;28;20087;-86
2022/01/12 07:59:36;;;;;;;42.67;17.80;;;-2.70;99.90;;;;;;10455038;28;20431;-87
2022/01/12 08:04:37;;;;;;;43.13;17.87;;;-2.70;99.90;;;;;;10453151;28;20037;-85
2022/01/12 08:09:39;;;;;;;41.83;16.43;;;-2.60;99.90;;;;;;10454348;28;20036;-86
2022/01/12 08:14:40;;;;;;;38.33;16.23;;;-2.60;99.90;;;;;;10454078;28;20021;-86
2022/01/12 08:19:41;;;;;;;35.50;14.13;;;-2.50;99.90;;;;;;10453739;28;20029;-86
2022/01/12 08:24:41;;;;;;;35.57;14.73;;;-2.50;99.90;;;;;;10473368;28;20396;-87
2022/01/12 08:29:42;;;;;;;37.73;17.30;;;-2.50;99.90;;;;;;10494257;28;20028;-87
2022/01/12 08:34:43;;;;;;;37.60;14.17;;;-2.40;99.90;;;;;;10476543;28;20036;-86
2022/01/12 08:39:43;;;;;;;51.40;19.40;;;-2.40;99.90;;;;;;10493859;28;20452;-86
2022/01/12 08:44:44;;;;;;;38.33;15.93;;;-2.40;99.90;;;;;;10494461;28;20107;-87
2022/01/12 08:49:45;;;;;;;34.70;14.63;;;-2.40;99.90;;;;;;10493937;28;20036;-86
2022/01/12 08:54:45;;;;;;;33.53;13.87;;;-2.30;99.90;;;;;;10475668;28;20025;-86
2022/01/12 08:59:46;;;;;;;49.13;19.97;;;-2.20;99.90;;;;;;10493400;28;20065;-90
2022/01/12 09:04:47;;;;;;;34.97;15.47;;;-2.10;99.90;;;;;;10470902;28;20071;-87
2022/01/12 09:09:48;;;;;;;87.83;32.73;;;-2.10;99.90;;;;;;10477617;28;20612;-85
2022/01/12 09:14:50;;;;;;;79.57;31.47;;;-2.00;99.90;;;;;;10493047;28;20021;-86
2022/01/12 09:19:52;;;;;;;65.23;24.20;;;-1.90;99.90;;;;;;10492290;28;20025;-88
2022/01/12 09:24:53;;;;;;;64.80;25.10;;;-1.90;99.90;;;;;;10492302;28;20280;-86
2022/01/12 09:29:54;;;;;;;67.17;23.67;;;-1.90;99.90;;;;;;10491898;28;20103;-88
2022/01/12 09:34:54;;;;;;;29.90;12.53;;;-1.70;99.90;;;;;;10492194;28;20032;-87
2022/01/12 09:39:55;;;;;;;25.33;11.13;;;-1.50;99.90;;;;;;10473482;28;20119;-89
2022/01/12 09:44:56;;;;;;;33.77;12.30;;;-1.20;99.90;;;;;;10492194;28;20051;-86
2022/01/12 09:49:57;;;;;;;24.53;11.53;;;-1.30;99.90;;;;;;10492562;28;20024;-85
2022/01/12 09:54:58;;;;;;;30.50;12.00;;;-1.40;99.90;;;;;;10491977;28;20480;-85
2022/01/12 09:59:59;;;;;;;24.43;11.73;;;-1.60;99.90;;;;;;10473079;28;20088;-85
2022/01/12 10:05:04;;;;;;;26.37;11.77;;;-1.70;99.90;;;;;;10474674;28;20468;-87
2022/01/12 10:10:07;;;;;;;25.65;11.15;;;-1.70;99.90;;;;;;10466641;28;20056;-88
2022/01/12 10:15:10;;;;;;;142.37;38.43;;;-1.50;99.90;;;;;;10489835;28;20024;-86
2022/01/12 10:20:17;;;;;;;55.37;19.80;;;-1.30;99.90;;;;;;10476358;28;20032;-86
2022/01/12 10:25:20;;;;;;;41.03;18.57;;;-1.00;99.90;;;;;;10490096;28;20058;-86
2022/01/12 10:30:22;;;;;;;32.70;12.57;;;-0.90;99.90;;;;;;10490376;28;20028;-86
2022/01/12 10:35:27;;;;;;;126.63;47.00;;;-1.00;99.90;;;;;;10490964;28;20031;-89
2022/01/12 10:40:28;;;;;;;252.95;92.55;;;-1.20;99.90;;;;;;10490108;28;20726;-86
2022/01/12 10:45:29;;;;;;;42.37;18.53;;;-1.20;99.90;;;;;;10490392;28;20044;-86
2022/01/12 10:50:29;;;;;;;111.80;37.17;;;-1.30;99.90;;;;;;10490103;28;20414;-87
2022/01/12 10:55:30;;;;;;;72.90;25.13;;;-1.30;99.90;;;;;;10489988;28;20036;-86
2022/01/12 11:00:31;;;;;;;35.27;14.13;;;-1.30;99.90;;;;;;10489713;28;20053;-88
2022/01/12 11:05:32;;;;;;;40.23;15.80;;;-1.20;99.90;;;;;;10489772;28;20025;-88
2022/01/12 11:10:33;;;;;;;84.30;32.03;;;-1.20;99.90;;;;;;10489933;28;20108;-87
2022/01/12 11:15:34;;;;;;;102.00;35.23;;;-1.00;99.90;;;;;;10492857;28;20107;-86
2022/01/12 11:20:37;;;;;;;39.63;15.37;;;-1.00;99.90;;;;;;10497717;28;20028;-86
2022/01/12 11:25:42;;;;;;;40.07;15.47;;;-0.90;99.90;;;;;;10495936;28;20052;-86
2022/01/12 11:30:50;;;;;;;53.63;18.70;;;-0.90;99.90;;;;;;10497402;28;20024;-86
2022/01/12 11:35:52;;;;;;;54.47;20.43;;;-1.00;99.90;;;;;;10497042;28;20020;-86
2022/01/12 11:40:55;;;;;;;36.33;16.27;;;-1.00;99.90;;;;;;10496183;28;20060;-87
2022/01/12 11:46:06;;;;;;;61.40;23.33;;;-1.00;99.90;;;;;;10496521;28;20139;-86
2022/01/12 11:51:08;;;;;;;87.70;34.73;;;-1.00;99.90;;;;;;10496811;28;20024;-86
2022/01/12 11:56:24;;;;;;;45.23;19.77;;;-0.90;99.90;;;;;;10496846;28;20063;-86
2022/01/12 12:01:39;;;;;;;60.13;22.37;;;-0.90;99.90;;;;;;10495641;28;20045;-86
2022/01/12 12:06:41;;;;;;;100.53;35.23;;;-0.90;99.90;;;;;;10495774;28;20021;-85
2022/01/12 12:11:48;;;;;;;81.47;32.70;;;-1.00;99.90;;;;;;10477318;28;20063;-86
2022/01/12 12:16:49;;;;;;;77.60;31.80;;;-0.90;99.90;;;;;;10495043;28;20524;-86
2022/01/12 12:21:50;;;;;;;40.47;16.03;;;-1.00;99.90;;;;;;10494830;28;20453;-86
2022/01/12 12:26:54;;;;;;;31.30;12.10;;;-0.90;99.90;;;;;;10494687;28;20124;-88
2022/01/12 12:31:56;;;;;;;31.90;13.83;;;-0.90;99.90;;;;;;10476548;28;20031;-86
2022/01/12 12:37:00;;;;;;;81.60;28.10;;;-0.90;99.90;;;;;;10476233;28;20029;-85
2022/01/12 12:42:03;;;;;;;54.53;22.50;;;-0.90;99.90;;;;;;10494494;28;20530;-87
2022/01/12 12:47:13;;;;;;;49.67;21.47;;;-0.90;99.90;;;;;;10493796;28;20435;-86
2022/01/12 12:52:29;;;;;;;87.53;35.20;;;-0.90;99.90;;;;;;10475360;28;20028;-86
2022/01/12 12:57:30;;;;;;;53.80;20.47;;;-0.90;99.90;;;;;;10492789;28;20053;-86
2022/01/12 13:02:58;;;;;;;51.67;21.17;;;-0.90;99.90;;;;;;10492701;28;20087;-85
2022/01/12 13:07:59;;;;;;;170.73;57.63;;;-1.00;99.90;;;;;;10489924;28;20619;-86
2022/01/12 13:13:03;;;;;;;65.67;23.47;;;-1.00;99.90;;;;;;10492663;28;20024;-86
2022/01/12 13:18:08;;;;;;;43.87;19.40;;;-1.10;99.90;;;;;;10475099;28;20036;-86
2022/01/12 13:23:09;;;;;;;58.67;21.13;;;-1.20;99.90;;;;;;10491916;28;20037;-86
2022/01/12 13:28:10;;;;;;;52.03;21.23;;;-1.10;99.90;;;;;;10492218;28;20028;-86
2022/01/12 13:33:10;;;;;;;93.70;32.53;;;-1.10;99.90;;;;;;10484403;28;20473;-87
2022/01/12 13:38:12;;;;;;;64.90;24.30;;;-1.00;99.90;;;;;;10458278;28;20039;-86
2022/01/12 13:43:13;;;;;;;65.40;27.37;;;-1.00;99.90;;;;;;10448344;28;20048;-88
2022/01/12 13:48:18;;;;;;;74.77;28.70;;;-1.10;99.90;;;;;;10432709;28;20035;-89
2022/01/12 13:53:19;;;;;;;94.70;34.80;;;-1.20;99.90;;;;;;10432873;28;20028;-86
2022/01/12 13:58:25;;;;;;;76.37;26.67;;;-1.40;99.90;;;;;;10448719;28;20032;-86
2022/01/12 14:03:26;;;;;;;99.77;42.00;;;-1.60;99.90;;;;;;10431175;28;20044;-87
2022/01/12 14:08:40;;;;;;;127.20;54.53;;;-1.60;99.90;;;;;;10436404;28;20037;-86
2022/01/12 14:13:41;;;;;;;182.93;77.07;;;-1.80;99.90;;;;;;10482026;28;20121;-86
2022/01/12 14:18:42;;;;;;;168.87;65.70;;;-1.90;99.90;;;;;;10505987;28;20106;-85
2022/01/12 14:23:43;;;;;;;262.53;108.90;;;-1.90;99.90;;;;;;10463227;28;20438;-87
2022/01/12 14:28:44;;;;;;;161.97;59.50;;;-2.00;99.90;;;;;;10477163;28;20036;-85
2022/01/12 14:33:45;;;;;;;118.23;46.97;;;-2.00;99.90;;;;;;10449227;28;20025;-89
2022/01/12 14:38:46;;;;;;;157.80;55.23;;;-2.00;99.90;;;;;;10448351;28;20037;-88
2022/01/12 14:43:49;;;;;;;120.53;42.70;;;-2.10;99.90;;;;;;10457250;28;20495;-84
2022/01/12 14:48:49;;;;;;;93.77;35.93;;;-2.10;99.90;;;;;;10449840;28;20063;-88
2022/01/12 14:53:51;;;;;;;78.77;35.20;;;-2.20;99.90;;;;;;10455064;28;20040;-88
2022/01/12 14:58:51;;;;;;;111.83;41.57;;;-2.30;99.90;;;;;;10497508;28;20041;-87
2022/01/12 15:03:52;;;;;;;381.63;148.07;;;-2.40;99.90;;;;;;10496353;28;20037;-85
2022/01/12 15:08:56;;;;;;;211.97;82.93;;;-2.60;99.90;;;;;;10487839;28;20058;-90
2022/01/12 15:14:00;;;;;;;294.73;110.77;;;-2.60;99.90;;;;;;10496556;28;20396;-88
2022/01/12 15:19:01;;;;;;;210.53;87.70;;;-2.90;99.90;;;;;;10469106;28;20067;-88
2022/01/12 15:24:02;;;;;;;220.07;89.60;;;-3.20;99.90;;;;;;10471415;28;20056;-86
2022/01/12 15:29:04;;;;;;;135.73;59.03;;;-3.30;99.90;;;;;;10497252;28;20111;-85
2022/01/12 15:34:05;;;;;;;96.80;43.07;;;-3.30;99.90;;;;;;10497147;28;20032;-86
2022/01/12 15:39:06;;;;;;;102.47;42.60;;;-3.30;99.90;;;;;;10513254;28;20478;-87
2022/01/12 15:44:12;;;;;;;131.03;55.17;;;-3.30;99.90;;;;;;10436758;28;20058;-86
2022/01/12 15:49:15;;;;;;;287.07;117.90;;;-3.20;99.90;;;;;;10470611;28;20116;-89
2022/01/12 15:54:15;;;;;;;425.20;196.73;;;-3.20;99.90;;;;;;10502764;28;20524;-85
2022/01/12 15:59:16;;;;;;;743.77;337.03;;;-3.20;99.90;;;;;;10478374;28;20053;-90
2022/01/12 16:04:17;;;;;;;569.53;258.87;;;-3.10;99.90;;;;;;10484585;28;20587;-88
2022/01/12 16:09:17;;;;;;;531.23;228.03;;;-3.10;99.90;;;;;;10436538;28;20017;-87
2022/01/12 16:14:19;;;;;;;436.27;183.43;;;-3.20;99.90;;;;;;10460052;28;20031;-84
2022/01/12 16:19:22;;;;;;;504.70;212.43;;;-3.20;99.90;;;;;;10468482;28;20586;-89
2022/01/12 16:24:23;;;;;;;505.80;201.33;;;-3.40;99.90;;;;;;10453418;28;20423;-86
2022/01/12 16:29:24;;;;;;;196.80;80.87;;;-3.40;99.90;;;;;;10453644;28;20037;-88
2022/01/12 16:34:24;;;;;;;187.80;81.00;;;-3.30;99.90;;;;;;10435213;28;20384;-91
2022/01/12 16:39:26;;;;;;;202.90;91.90;;;-3.30;99.90;;;;;;10444793;28;20025;-88
2022/01/12 17:01:32;;;;;;;203.50;84.33;;;-2.90;99.90;;;;;;10538592;28;20040;-86
2022/01/12 17:07:30;;;;;;;;;;;;;;;;;;;;;
2022/01/12 17:25:29;;;;;;;107.73;42.87;;;-2.60;99.90;;;;;;10528180;28;20048;-88
2022/01/12 17:30:30;;;;;;;142.57;56.20;;;-2.60;99.90;;;;;;10508948;28;20031;-87
2022/01/12 17:35:31;;;;;;;176.50;67.93;;;-2.50;99.90;;;;;;10507819;28;20035;-88
2022/01/12 17:40:31;;;;;;;106.60;46.23;;;-2.60;99.90;;;;;;10532309;28;20085;-90
2022/01/12 17:45:43;;;;;;;136.50;60.03;;;-2.60;99.90;;;;;;10512990;28;20024;-87
2022/01/12 17:50:44;;;;;;;118.37;48.87;;;-2.50;99.90;;;;;;10523750;28;20032;-84
2022/01/12 17:55:46;;;;;;;123.60;48.57;;;-2.50;99.90;;;;;;10458960;28;20044;-87
2022/01/12 18:00:47;;;;;;;157.10;62.53;;;-2.50;99.90;;;;;;10484227;28;20044;-85
2022/01/12 18:18:00;;;;;;;125.23;47.67;;;-2.50;99.90;;;;;;10414690;28;20033;-84
2022/01/12 18:23:01;;;;;;;132.80;53.97;;;-2.40;99.90;;;;;;10432262;28;20122;-87
2022/01/12 18:28:03;;;;;;;119.13;48.30;;;-2.40;99.90;;;;;;10396922;28;20029;-87
2022/01/12 18:33:22;;;;;;;118.97;48.13;;;-2.50;99.90;;;;;;10386130;28;20044;-87
2022/01/12 18:39:11;;;;;;;126.40;52.17;;;-2.40;99.90;;;;;;10412335;28;20119;-89
2022/01/12 18:44:39;;;;;;;119.60;49.57;;;-2.40;99.90;;;;;;10387032;28;20095;-87
2022/01/12 18:49:40;;;;;;;104.87;42.23;;;-2.40;99.90;;;;;;10389024;28;20041;-90
2022/01/12 19:12:59;;;;;;;117.00;52.27;;;-2.50;99.90;;;;;;10445999;28;20541;-88
2022/01/12 19:24:30;;;;;;;135.70;53.30;;;-2.50;99.90;;;;;;10444694;28;20128;-83
2022/01/12 19:29:31;;;;;;;195.43;77.50;;;-2.60;99.90;;;;;;10424993;28;20376;-87
2022/01/12 19:34:32;;;;;;;209.93;80.80;;;-2.60;99.90;;;;;;10416913;28;20029;-88
2022/01/12 19:39:33;;;;;;;340.50;122.13;;;-2.60;99.90;;;;;;10421262;28;20022;-90
2022/01/12 19:44:36;;;;;;;167.17;64.90;;;-2.60;99.90;;;;;;10418089;28;20112;-89
2022/01/12 19:49:37;;;;;;;161.97;62.20;;;-2.60;99.90;;;;;;10446752;28;20433;-89
2022/01/12 19:54:40;;;;;;;118.40;47.27;;;-2.60;99.90;;;;;;10453010;28;20036;-87
2022/01/12 19:59:43;;;;;;;127.03;50.03;;;-2.60;99.90;;;;;;10444545;28;20049;-87
2022/01/12 20:04:44;;;;;;;157.87;59.67;;;-2.50;99.90;;;;;;10437891;28;20032;-87
2022/01/12 20:09:44;;;;;;;241.13;94.27;;;-2.50;99.90;;;;;;10438373;28;20057;-86
2022/01/12 20:14:46;;;;;;;217.47;86.83;;;-2.40;99.90;;;;;;10434530;28;20039;-86
2022/01/12 20:25:16;;;;;;;148.93;55.17;;;-2.40;99.90;;;;;;10411593;28;20685;-88
2022/01/12 20:30:18;;;;;;;133.23;55.73;;;-2.40;99.90;;;;;;10439719;28;20037;-88
2022/01/12 20:35:20;;;;;;;133.57;55.97;;;-2.40;99.90;;;;;;10435140;28;20653;-88
2022/01/12 20:40:21;;;;;;;127.63;52.00;;;-2.40;99.90;;;;;;10425928;28;20048;-87
2022/01/12 20:45:21;;;;;;;114.67;48.30;;;-2.40;99.90;;;;;;10452705;28;20076;-87
2022/01/12 20:50:22;;;;;;;127.43;50.47;;;-2.40;99.90;;;;;;10433837;28;20068;-86
2022/01/12 20:55:23;;;;;;;113.97;46.40;;;-2.40;99.90;;;;;;10450650;28;20029;-88
2022/01/12 21:00:24;;;;;;;116.10;47.60;;;-2.40;99.90;;;;;;10460874;28;20033;-86
2022/01/12 21:05:24;;;;;;;107.13;45.43;;;-2.40;99.90;;;;;;10434030;28;20056;-88
2022/01/12 21:10:25;;;;;;;105.80;43.53;;;-2.40;99.90;;;;;;10450798;28;20132;-88
2022/01/12 21:15:27;;;;;;;106.93;46.10;;;-2.40;99.90;;;;;;10438243;28;20504;-87
2022/01/12 21:20:28;;;;;;;144.67;54.57;;;-2.40;99.90;;;;;;10443136;28;20397;-86
2022/01/12 21:25:29;;;;;;;141.13;56.80;;;-2.40;99.90;;;;;;10412128;28;20091;-88
2022/01/12 21:30:30;;;;;;;142.80;60.10;;;-2.30;99.90;;;;;;10429425;28;20063;-87
2022/01/12 21:35:35;;;;;;;153.13;63.73;;;-2.30;99.90;;;;;;10428288;28;20086;-87
2022/01/12 21:40:43;;;;;;;140.27;56.07;;;-2.30;99.90;;;;;;10445768;28;20481;-88
2022/01/12 21:45:49;;;;;;;132.27;53.50;;;-2.30;99.90;;;;;;10432594;28;20037;-87
2022/01/12 21:50:49;;;;;;;125.53;53.17;;;-2.30;99.90;;;;;;10444506;28;20029;-87
2022/01/12 21:55:50;;;;;;;133.80;55.80;;;-2.30;99.90;;;;;;10418955;28;20026;-86
2022/01/12 22:00:52;;;;;;;125.97;54.30;;;-2.20;99.90;;;;;;10456286;28;20055;-87
2022/01/12 22:05:53;;;;;;;130.97;57.23;;;-2.20;99.90;;;;;;10461246;28;20028;-89
2022/01/12 22:10:54;;;;;;;124.90;51.03;;;-2.20;99.90;;;;;;10474025;28;20476;-87
2022/01/12 22:15:55;;;;;;;116.63;51.73;;;-2.10;99.90;;;;;;10459115;28;20028;-87
2022/01/12 22:20:56;;;;;;;133.60;51.73;;;-2.10;99.90;;;;;;10455292;28;20029;-87
2022/01/12 22:25:57;;;;;;;120.23;46.77;;;-2.10;99.90;;;;;;10430750;28;20575;-85
2022/01/12 22:30:58;;;;;;;117.33;48.50;;;-2.10;99.90;;;;;;10429134;28;20040;-86
2022/01/12 22:35:59;;;;;;;118.13;51.10;;;-2.20;99.90;;;;;;10448918;28;20021;-85
2022/01/12 22:41:00;;;;;;;152.27;59.73;;;-2.10;99.90;;;;;;10449768;28;20597;-85
2022/01/12 22:46:00;;;;;;;126.60;50.67;;;-2.20;99.90;;;;;;10430710;28;20037;-84
2022/01/12 22:51:03;;;;;;;134.97;55.43;;;-2.20;99.90;;;;;;10448313;28;20059;-84
2022/01/12 22:56:04;;;;;;;130.60;53.27;;;-2.20;99.90;;;;;;10430867;28;20706;-86
2022/01/12 23:01:14;;;;;;;129.13;53.93;;;-2.20;99.90;;;;;;10470217;28;20035;-84
2022/01/12 23:06:16;;;;;;;141.00;55.80;;;-2.20;99.90;;;;;;10479521;28;20025;-86
2022/01/12 23:11:17;;;;;;;163.63;65.83;;;-2.20;99.90;;;;;;10449534;28;20132;-87
2022/01/12 23:16:18;;;;;;;144.93;60.47;;;-2.20;99.90;;;;;;10456142;28;20021;-86
2022/01/12 23:21:18;;;;;;;151.20;62.07;;;-2.30;99.90;;;;;;10438714;28;20036;-86
2022/01/12 23:26:19;;;;;;;173.50;71.77;;;-2.20;99.90;;;;;;10437790;28;20245;-85
2022/01/12 23:31:24;;;;;;;180.93;74.07;;;-2.20;99.90;;;;;;10437092;28;20049;-86
2022/01/12 23:57:22;;;;;;;194.93;82.23;;;-2.10;99.90;;;;;;10430136;28;20047;-86
